sensor_id;sensor_type;location;lat;lon;timestamp;P1;durP1;ratioP1;P2;durP2;ratioP2
69894;SDS011;57172;52.034;5.090;2023-11-18T00:01:44;35.33;;;15.90;;
69894;SDS011;57172;52.034;5.090;2023-11-18T00:04:11;40.20;;;16.60;;
69894;SDS011;57172;52.034;5.090;2023-11-18T00:06:44;39.88;;;16.00;;
69894;SDS011;57172;52.034;5.090;2023-11-18T00:09:12;40.17;;;17.10;;
69894;SDS011;57172;52.034;5.090;2023-11-18T00:11:42;43.35;;;18.30;;
69894;SDS011;57172;52.034;5.090;2023-11-18T00:14:09;43.40;;;17.37;;
69894;SDS011;57172;52.034;5.090;2023-11-18T00:16:40;41.13;;;16.98;;
69894;SDS011;57172;52.034;5.090;2023-11-18T00:19:07;41.03;;;17.00;;
69894;SDS011;57172;52.034;5.090;2023-11-18T00:21:35;42.25;;;17.60;;
69894;SDS011;57172;52.034;5.090;2023-11-18T00:24:02;43.85;;;17.50;;
69894;SDS011;57172;52.034;5.090;2023-11-18T00:26:31;39.30;;;17.90;;
69894;SDS011;57172;52.034;5.090;2023-11-18T00:28:58;41.72;;;17.85;;
69894;SDS011;57172;52.034;5.090;2023-11-18T00:31:27;37.30;;;17.70;;
69894;SDS011;57172;52.034;5.090;2023-11-18T00:33:54;39.75;;;17.15;;
69894;SDS011;57172;52.034;5.090;2023-11-18T00:36:21;40.38;;;17.80;;
69894;SDS011;57172;52.034;5.090;2023-11-18T00:38:48;40.30;;;16.97;;
69894;SDS011;57172;52.034;5.090;2023-11-18T00:41:15;36.63;;;16.67;;
69894;SDS011;57172;52.034;5.090;2023-11-18T00:43:44;44.88;;;17.23;;
69894;SDS011;57172;52.034;5.090;2023-11-18T00:46:11;39.55;;;17.02;;
69894;SDS011;57172;52.034;5.090;2023-11-18T00:48:38;39.08;;;17.27;;
69894;SDS011;57172;52.034;5.090;2023-11-18T00:51:08;42.37;;;16.33;;
69894;SDS011;57172;52.034;5.090;2023-11-18T00:53:35;38.15;;;17.17;;
69894;SDS011;57172;52.034;5.090;2023-11-18T00:56:02;33.17;;;15.13;;
69894;SDS011;57172;52.034;5.090;2023-11-18T00:58:34;34.53;;;15.93;;
69894;SDS011;57172;52.034;5.090;2023-11-18T01:01:05;33.22;;;15.73;;
69894;SDS011;57172;52.034;5.090;2023-11-18T01:03:33;39.03;;;17.20;;
69894;SDS011;57172;52.034;5.090;2023-11-18T01:06:00;41.65;;;17.95;;
69894;SDS011;57172;52.034;5.090;2023-11-18T01:08:27;40.67;;;17.08;;
69894;SDS011;57172;52.034;5.090;2023-11-18T01:10:54;41.33;;;17.60;;
69894;SDS011;57172;52.034;5.090;2023-11-18T01:13:21;40.78;;;17.83;;
69894;SDS011;57172;52.034;5.090;2023-11-18T01:15:48;33.33;;;15.03;;
69894;SDS011;57172;52.034;5.090;2023-11-18T01:18:15;36.70;;;16.45;;
69894;SDS011;57172;52.034;5.090;2023-11-18T01:20:44;34.10;;;15.63;;
69894;SDS011;57172;52.034;5.090;2023-11-18T01:23:11;38.08;;;17.02;;
69894;SDS011;57172;52.034;5.090;2023-11-18T01:25:37;43.75;;;17.42;;
69894;SDS011;57172;52.034;5.090;2023-11-18T01:28:06;38.87;;;16.97;;
69894;SDS011;57172;52.034;5.090;2023-11-18T01:30:33;36.25;;;17.00;;
69894;SDS011;57172;52.034;5.090;2023-11-18T01:33:00;38.17;;;16.73;;
69894;SDS011;57172;52.034;5.090;2023-11-18T01:35:30;39.97;;;16.92;;
69894;SDS011;57172;52.034;5.090;2023-11-18T01:37:57;36.33;;;17.25;;
69894;SDS011;57172;52.034;5.090;2023-11-18T01:40:25;34.73;;;15.37;;
69894;SDS011;57172;52.034;5.090;2023-11-18T01:42:52;36.13;;;16.25;;
69894;SDS011;57172;52.034;5.090;2023-11-18T01:45:19;33.13;;;15.57;;
69894;SDS011;57172;52.034;5.090;2023-11-18T01:47:46;40.22;;;15.40;;
69894;SDS011;57172;52.034;5.090;2023-11-18T01:50:15;33.28;;;14.68;;
69894;SDS011;57172;52.034;5.090;2023-11-18T01:52:45;35.70;;;15.90;;
69894;SDS011;57172;52.034;5.090;2023-11-18T01:55:13;36.15;;;16.15;;
69894;SDS011;57172;52.034;5.090;2023-11-18T01:57:40;37.60;;;16.83;;
69894;SDS011;57172;52.034;5.090;2023-11-18T02:00:11;36.50;;;16.33;;
69894;SDS011;57172;52.034;5.090;2023-11-18T02:02:40;27.15;;;12.45;;
69894;SDS011;57172;52.034;5.090;2023-11-18T02:05:07;34.83;;;15.93;;
69894;SDS011;57172;52.034;5.090;2023-11-18T02:07:34;33.67;;;14.77;;
69894;SDS011;57172;52.034;5.090;2023-11-18T02:10:04;36.60;;;16.60;;
69894;SDS011;57172;52.034;5.090;2023-11-18T02:12:43;33.95;;;16.25;;
69894;SDS011;57172;52.034;5.090;2023-11-18T02:15:15;40.58;;;17.73;;
69894;SDS011;57172;52.034;5.090;2023-11-18T02:17:44;30.57;;;16.13;;
69894;SDS011;57172;52.034;5.090;2023-11-18T02:20:12;35.28;;;15.90;;
69894;SDS011;57172;52.034;5.090;2023-11-18T02:22:44;43.55;;;17.98;;
69894;SDS011;57172;52.034;5.090;2023-11-18T02:25:16;34.90;;;16.38;;
69894;SDS011;57172;52.034;5.090;2023-11-18T02:27:45;38.40;;;15.57;;
69894;SDS011;57172;52.034;5.090;2023-11-18T02:30:16;34.27;;;16.77;;
69894;SDS011;57172;52.034;5.090;2023-11-18T02:32:45;41.33;;;16.05;;
69894;SDS011;57172;52.034;5.090;2023-11-18T02:37:52;34.95;;;16.75;;
69894;SDS011;57172;52.034;5.090;2023-11-18T02:40:39;39.13;;;16.65;;
69894;SDS011;57172;52.034;5.090;2023-11-18T02:43:10;38.53;;;17.93;;
69894;SDS011;57172;52.034;5.090;2023-11-18T02:45:37;38.67;;;17.58;;
69894;SDS011;57172;52.034;5.090;2023-11-18T02:48:07;37.72;;;16.35;;
69894;SDS011;57172;52.034;5.090;2023-11-18T02:50:36;39.33;;;17.67;;
69894;SDS011;57172;52.034;5.090;2023-11-18T02:53:03;44.83;;;18.48;;
69894;SDS011;57172;52.034;5.090;2023-11-18T02:55:31;38.10;;;18.67;;
69894;SDS011;57172;52.034;5.090;2023-11-18T02:57:58;40.65;;;18.50;;
69894;SDS011;57172;52.034;5.090;2023-11-18T03:00:25;40.90;;;19.27;;
69894;SDS011;57172;52.034;5.090;2023-11-18T03:02:52;46.25;;;20.15;;
69894;SDS011;57172;52.034;5.090;2023-11-18T03:05:19;43.65;;;20.40;;
69894;SDS011;57172;52.034;5.090;2023-11-18T03:07:48;40.80;;;19.50;;
69894;SDS011;57172;52.034;5.090;2023-11-18T03:10:20;43.28;;;19.25;;
69894;SDS011;57172;52.034;5.090;2023-11-18T03:12:48;42.17;;;19.25;;
69894;SDS011;57172;52.034;5.090;2023-11-18T03:15:20;42.13;;;18.98;;
69894;SDS011;57172;52.034;5.090;2023-11-18T03:17:48;37.58;;;19.00;;
69894;SDS011;57172;52.034;5.090;2023-11-18T03:20:17;40.23;;;19.03;;
69894;SDS011;57172;52.034;5.090;2023-11-18T03:22:45;40.08;;;18.80;;
69894;SDS011;57172;52.034;5.090;2023-11-18T03:25:13;47.67;;;19.60;;
69894;SDS011;57172;52.034;5.090;2023-11-18T03:27:40;42.55;;;19.08;;
69894;SDS011;57172;52.034;5.090;2023-11-18T03:30:07;37.92;;;17.85;;
69894;SDS011;57172;52.034;5.090;2023-11-18T03:32:36;36.87;;;18.33;;
69894;SDS011;57172;52.034;5.090;2023-11-18T03:35:05;40.22;;;17.52;;
69894;SDS011;57172;52.034;5.090;2023-11-18T03:37:40;33.83;;;15.60;;
69894;SDS011;57172;52.034;5.090;2023-11-18T03:40:10;41.53;;;18.77;;
69894;SDS011;57172;52.034;5.090;2023-11-18T03:42:38;30.58;;;13.27;;
69894;SDS011;57172;52.034;5.090;2023-11-18T03:45:07;41.07;;;17.87;;
69894;SDS011;57172;52.034;5.090;2023-11-18T03:47:36;37.90;;;16.48;;
69894;SDS011;57172;52.034;5.090;2023-11-18T03:50:03;41.13;;;18.77;;
69894;SDS011;57172;52.034;5.090;2023-11-18T03:52:31;34.40;;;16.40;;
69894;SDS011;57172;52.034;5.090;2023-11-18T03:54:58;46.15;;;19.13;;
69894;SDS011;57172;52.034;5.090;2023-11-18T03:57:25;38.60;;;18.20;;
69894;SDS011;57172;52.034;5.090;2023-11-18T03:59:52;39.33;;;17.85;;
69894;SDS011;57172;52.034;5.090;2023-11-18T04:02:19;34.53;;;16.02;;
69894;SDS011;57172;52.034;5.090;2023-11-18T04:04:46;38.88;;;17.50;;
69894;SDS011;57172;52.034;5.090;2023-11-18T04:07:14;38.50;;;17.38;;
69894;SDS011;57172;52.034;5.090;2023-11-18T04:09:41;38.93;;;17.73;;
69894;SDS011;57172;52.034;5.090;2023-11-18T04:12:09;43.58;;;18.77;;
69894;SDS011;57172;52.034;5.090;2023-11-18T04:14:37;41.17;;;17.90;;
69894;SDS011;57172;52.034;5.090;2023-11-18T04:17:04;40.35;;;18.10;;
69894;SDS011;57172;52.034;5.090;2023-11-18T04:19:34;36.92;;;17.60;;
69894;SDS011;57172;52.034;5.090;2023-11-18T04:22:01;42.07;;;18.27;;
69894;SDS011;57172;52.034;5.090;2023-11-18T04:24:28;40.92;;;17.80;;
69894;SDS011;57172;52.034;5.090;2023-11-18T04:26:55;39.75;;;17.77;;
69894;SDS011;57172;52.034;5.090;2023-11-18T04:29:22;39.42;;;18.23;;
69894;SDS011;57172;52.034;5.090;2023-11-18T04:31:49;35.05;;;15.77;;
69894;SDS011;57172;52.034;5.090;2023-11-18T04:34:16;29.70;;;13.20;;
69894;SDS011;57172;52.034;5.090;2023-11-18T04:36:43;34.00;;;16.67;;
69894;SDS011;57172;52.034;5.090;2023-11-18T04:39:10;33.50;;;15.75;;
69894;SDS011;57172;52.034;5.090;2023-11-18T04:41:42;35.17;;;17.13;;
69894;SDS011;57172;52.034;5.090;2023-11-18T04:44:10;38.03;;;17.48;;
69894;SDS011;57172;52.034;5.090;2023-11-18T04:46:36;37.70;;;17.50;;
69894;SDS011;57172;52.034;5.090;2023-11-18T04:49:03;41.55;;;17.52;;
69894;SDS011;57172;52.034;5.090;2023-11-18T04:51:32;37.80;;;17.50;;
69894;SDS011;57172;52.034;5.090;2023-11-18T04:53:59;39.67;;;17.38;;
69894;SDS011;57172;52.034;5.090;2023-11-18T04:56:26;35.72;;;16.77;;
69894;SDS011;57172;52.034;5.090;2023-11-18T04:58:53;38.80;;;18.10;;
69894;SDS011;57172;52.034;5.090;2023-11-18T05:01:20;40.35;;;18.45;;
69894;SDS011;57172;52.034;5.090;2023-11-18T05:03:47;35.05;;;15.13;;
69894;SDS011;57172;52.034;5.090;2023-11-18T05:06:14;34.65;;;15.25;;
69894;SDS011;57172;52.034;5.090;2023-11-18T05:08:41;45.83;;;18.40;;
69894;SDS011;57172;52.034;5.090;2023-11-18T05:11:08;35.90;;;16.23;;
69894;SDS011;57172;52.034;5.090;2023-11-18T05:13:35;37.30;;;17.45;;
69894;SDS011;57172;52.034;5.090;2023-11-18T05:16:02;41.65;;;17.45;;
69894;SDS011;57172;52.034;5.090;2023-11-18T05:18:30;39.78;;;17.38;;
69894;SDS011;57172;52.034;5.090;2023-11-18T05:21:02;39.47;;;18.35;;
69894;SDS011;57172;52.034;5.090;2023-11-18T05:23:35;37.27;;;18.03;;
69894;SDS011;57172;52.034;5.090;2023-11-18T05:26:02;40.05;;;17.08;;
69894;SDS011;57172;52.034;5.090;2023-11-18T05:28:33;37.78;;;16.77;;
69894;SDS011;57172;52.034;5.090;2023-11-18T05:31:00;39.60;;;17.15;;
69894;SDS011;57172;52.034;5.090;2023-11-18T05:33:31;42.65;;;17.25;;
69894;SDS011;57172;52.034;5.090;2023-11-18T05:36:00;34.20;;;16.03;;
69894;SDS011;57172;52.034;5.090;2023-11-18T05:38:31;37.78;;;16.52;;
69894;SDS011;57172;52.034;5.090;2023-11-18T05:41:01;36.97;;;16.42;;
69894;SDS011;57172;52.034;5.090;2023-11-18T05:43:30;37.83;;;16.55;;
69894;SDS011;57172;52.034;5.090;2023-11-18T05:46:07;36.13;;;16.08;;
69894;SDS011;57172;52.034;5.090;2023-11-18T05:48:52;41.03;;;16.17;;
69894;SDS011;57172;52.034;5.090;2023-11-18T05:51:20;33.88;;;14.38;;
69894;SDS011;57172;52.034;5.090;2023-11-18T05:53:48;39.30;;;15.95;;
69894;SDS011;57172;52.034;5.090;2023-11-18T05:56:15;40.90;;;15.85;;
69894;SDS011;57172;52.034;5.090;2023-11-18T05:58:45;40.85;;;16.85;;
69894;SDS011;57172;52.034;5.090;2023-11-18T06:01:12;38.87;;;16.30;;
69894;SDS011;57172;52.034;5.090;2023-11-18T06:03:43;35.78;;;15.25;;
69894;SDS011;57172;52.034;5.090;2023-11-18T06:06:12;36.35;;;15.52;;
69894;SDS011;57172;52.034;5.090;2023-11-18T06:08:47;40.85;;;15.45;;
69894;SDS011;57172;52.034;5.090;2023-11-18T06:11:15;39.45;;;15.30;;
69894;SDS011;57172;52.034;5.090;2023-11-18T06:13:43;42.17;;;14.83;;
69894;SDS011;57172;52.034;5.090;2023-11-18T06:16:24;39.15;;;14.65;;
69894;SDS011;57172;52.034;5.090;2023-11-18T06:18:52;35.33;;;14.13;;
69894;SDS011;57172;52.034;5.090;2023-11-18T06:21:21;32.63;;;13.95;;
69894;SDS011;57172;52.034;5.090;2023-11-18T06:23:57;36.80;;;14.65;;
69894;SDS011;57172;52.034;5.090;2023-11-18T06:26:27;32.17;;;13.90;;
69894;SDS011;57172;52.034;5.090;2023-11-18T06:28:54;32.72;;;13.60;;
69894;SDS011;57172;52.034;5.090;2023-11-18T06:31:22;33.20;;;14.15;;
69894;SDS011;57172;52.034;5.090;2023-11-18T06:33:52;30.77;;;13.77;;
69894;SDS011;57172;52.034;5.090;2023-11-18T06:36:19;31.60;;;13.57;;
69894;SDS011;57172;52.034;5.090;2023-11-18T06:38:48;34.17;;;13.73;;
69894;SDS011;57172;52.034;5.090;2023-11-18T06:41:16;26.85;;;11.85;;
69894;SDS011;57172;52.034;5.090;2023-11-18T06:43:45;33.45;;;13.35;;
69894;SDS011;57172;52.034;5.090;2023-11-18T06:46:27;34.00;;;13.25;;
69894;SDS011;57172;52.034;5.090;2023-11-18T06:48:58;26.67;;;12.27;;
69894;SDS011;57172;52.034;5.090;2023-11-18T06:51:26;27.67;;;12.33;;
69894;SDS011;57172;52.034;5.090;2023-11-18T06:53:54;32.95;;;13.55;;
69894;SDS011;57172;52.034;5.090;2023-11-18T06:56:22;32.38;;;12.98;;
69894;SDS011;57172;52.034;5.090;2023-11-18T06:58:53;33.08;;;13.57;;
69894;SDS011;57172;52.034;5.090;2023-11-18T07:01:20;35.17;;;14.10;;
69894;SDS011;57172;52.034;5.090;2023-11-18T07:03:48;34.83;;;13.40;;
69894;SDS011;57172;52.034;5.090;2023-11-18T07:06:19;31.52;;;14.50;;
69894;SDS011;57172;52.034;5.090;2023-11-18T07:08:49;32.13;;;14.32;;
69894;SDS011;57172;52.034;5.090;2023-11-18T07:11:17;28.73;;;13.07;;
69894;SDS011;57172;52.034;5.090;2023-11-18T07:13:45;33.15;;;14.27;;
69894;SDS011;57172;52.034;5.090;2023-11-18T07:16:15;35.40;;;14.70;;
69894;SDS011;57172;52.034;5.090;2023-11-18T07:18:42;33.42;;;14.20;;
69894;SDS011;57172;52.034;5.090;2023-11-18T07:21:09;29.75;;;14.82;;
69894;SDS011;57172;52.034;5.090;2023-11-18T07:23:36;29.23;;;13.63;;
69894;SDS011;57172;52.034;5.090;2023-11-18T07:26:03;31.90;;;14.20;;
69894;SDS011;57172;52.034;5.090;2023-11-18T07:28:30;29.17;;;14.03;;
69894;SDS011;57172;52.034;5.090;2023-11-18T07:30:57;31.58;;;14.25;;
69894;SDS011;57172;52.034;5.090;2023-11-18T07:33:26;31.20;;;14.48;;
69894;SDS011;57172;52.034;5.090;2023-11-18T07:35:53;33.45;;;14.65;;
69894;SDS011;57172;52.034;5.090;2023-11-18T07:38:21;33.88;;;14.43;;
69894;SDS011;57172;52.034;5.090;2023-11-18T07:40:48;32.70;;;14.50;;
69894;SDS011;57172;52.034;5.090;2023-11-18T07:43:15;37.33;;;14.95;;
69894;SDS011;57172;52.034;5.090;2023-11-18T07:45:42;32.70;;;14.20;;
69894;SDS011;57172;52.034;5.090;2023-11-18T07:48:09;31.88;;;14.40;;
69894;SDS011;57172;52.034;5.090;2023-11-18T07:50:39;28.92;;;13.90;;
69894;SDS011;57172;52.034;5.090;2023-11-18T07:53:11;34.23;;;14.70;;
69894;SDS011;57172;52.034;5.090;2023-11-18T07:55:38;32.90;;;15.02;;
69894;SDS011;57172;52.034;5.090;2023-11-18T07:58:09;34.95;;;14.63;;
69894;SDS011;57172;52.034;5.090;2023-11-18T08:00:42;31.45;;;14.25;;
69894;SDS011;57172;52.034;5.090;2023-11-18T08:03:11;35.28;;;14.77;;
69894;SDS011;57172;52.034;5.090;2023-11-18T08:05:41;36.93;;;14.83;;
69894;SDS011;57172;52.034;5.090;2023-11-18T08:08:10;33.75;;;14.30;;
69894;SDS011;57172;52.034;5.090;2023-11-18T08:10:38;32.50;;;14.00;;
69894;SDS011;57172;52.034;5.090;2023-11-18T08:13:06;36.08;;;14.23;;
69894;SDS011;57172;52.034;5.090;2023-11-18T08:15:34;31.92;;;14.65;;
69894;SDS011;57172;52.034;5.090;2023-11-18T08:18:04;33.80;;;13.50;;
69894;SDS011;57172;52.034;5.090;2023-11-18T08:20:33;29.08;;;13.18;;
69894;SDS011;57172;52.034;5.090;2023-11-18T08:23:00;33.47;;;13.13;;
69894;SDS011;57172;52.034;5.090;2023-11-18T08:25:27;27.15;;;10.55;;
69894;SDS011;57172;52.034;5.090;2023-11-18T08:27:54;30.42;;;12.63;;
69894;SDS011;57172;52.034;5.090;2023-11-18T08:30:21;33.50;;;13.13;;
69894;SDS011;57172;52.034;5.090;2023-11-18T08:32:48;26.50;;;11.85;;
69894;SDS011;57172;52.034;5.090;2023-11-18T08:35:15;26.98;;;10.13;;
69894;SDS011;57172;52.034;5.090;2023-11-18T08:37:42;29.13;;;12.63;;
69894;SDS011;57172;52.034;5.090;2023-11-18T08:40:10;29.15;;;12.55;;
69894;SDS011;57172;52.034;5.090;2023-11-18T08:42:45;25.23;;;12.17;;
69894;SDS011;57172;52.034;5.090;2023-11-18T08:45:20;23.40;;;9.90;;
69894;SDS011;57172;52.034;5.090;2023-11-18T08:47:54;24.38;;;9.13;;
69894;SDS011;57172;52.034;5.090;2023-11-18T08:50:22;29.70;;;10.98;;
69894;SDS011;57172;52.034;5.090;2023-11-18T08:52:51;24.13;;;9.80;;
69894;SDS011;57172;52.034;5.090;2023-11-18T08:55:29;24.67;;;9.73;;
69894;SDS011;57172;52.034;5.090;2023-11-18T08:58:11;21.33;;;8.45;;
69894;SDS011;57172;52.034;5.090;2023-11-18T09:00:58;21.90;;;8.52;;
69894;SDS011;57172;52.034;5.090;2023-11-18T09:03:32;17.08;;;7.18;;
69894;SDS011;57172;52.034;5.090;2023-11-18T09:06:04;19.38;;;8.43;;
69894;SDS011;57172;52.034;5.090;2023-11-18T09:08:42;14.23;;;5.83;;
69894;SDS011;57172;52.034;5.090;2023-11-18T09:11:10;20.52;;;7.07;;
69894;SDS011;57172;52.034;5.090;2023-11-18T09:13:42;19.17;;;8.02;;
69894;SDS011;57172;52.034;5.090;2023-11-18T09:16:36;18.88;;;7.55;;
69894;SDS011;57172;52.034;5.090;2023-11-18T09:19:06;16.90;;;7.45;;
69894;SDS011;57172;52.034;5.090;2023-11-18T09:21:32;16.47;;;6.50;;
69894;SDS011;57172;52.034;5.090;2023-11-18T09:24:02;14.73;;;6.43;;
69894;SDS011;57172;52.034;5.090;2023-11-18T09:26:34;19.05;;;7.25;;
69894;SDS011;57172;52.034;5.090;2023-11-18T09:29:01;17.83;;;7.03;;
69894;SDS011;57172;52.034;5.090;2023-11-18T09:31:29;18.52;;;6.97;;
69894;SDS011;57172;52.034;5.090;2023-11-18T09:33:57;20.57;;;7.50;;
69894;SDS011;57172;52.034;5.090;2023-11-18T09:36:24;16.02;;;7.07;;
69894;SDS011;57172;52.034;5.090;2023-11-18T09:38:55;16.60;;;7.05;;
69894;SDS011;57172;52.034;5.090;2023-11-18T09:41:23;21.33;;;7.25;;
69894;SDS011;57172;52.034;5.090;2023-11-18T09:43:54;13.52;;;6.20;;
69894;SDS011;57172;52.034;5.090;2023-11-18T09:46:24;11.03;;;4.53;;
69894;SDS011;57172;52.034;5.090;2023-11-18T09:49:20;14.93;;;5.85;;
69894;SDS011;57172;52.034;5.090;2023-11-18T09:51:53;12.80;;;5.95;;
69894;SDS011;57172;52.034;5.090;2023-11-18T09:54:27;14.57;;;5.75;;
69894;SDS011;57172;52.034;5.090;2023-11-18T09:59:49;9.40;;;3.80;;
69894;SDS011;57172;52.034;5.090;2023-11-18T10:02:39;14.75;;;4.68;;
69894;SDS011;57172;52.034;5.090;2023-11-18T10:05:07;12.63;;;4.38;;
69894;SDS011;57172;52.034;5.090;2023-11-18T10:07:40;12.52;;;4.60;;
69894;SDS011;57172;52.034;5.090;2023-11-18T10:10:08;10.63;;;3.63;;
69894;SDS011;57172;52.034;5.090;2023-11-18T10:12:42;10.37;;;4.57;;
69894;SDS011;57172;52.034;5.090;2023-11-18T10:15:19;11.57;;;3.50;;
69894;SDS011;57172;52.034;5.090;2023-11-18T10:17:51;10.55;;;3.53;;
69894;SDS011;57172;52.034;5.090;2023-11-18T10:20:42;7.95;;;3.33;;
69894;SDS011;57172;52.034;5.090;2023-11-18T10:23:14;8.90;;;3.60;;
69894;SDS011;57172;52.034;5.090;2023-11-18T10:28:23;9.30;;;3.85;;
69894;SDS011;57172;52.034;5.090;2023-11-18T10:31:04;9.02;;;4.05;;
69894;SDS011;57172;52.034;5.090;2023-11-18T10:33:39;12.60;;;4.93;;
69894;SDS011;57172;52.034;5.090;2023-11-18T10:36:19;9.68;;;4.50;;
69894;SDS011;57172;52.034;5.090;2023-11-18T10:38:52;9.37;;;3.50;;
69894;SDS011;57172;52.034;5.090;2023-11-18T10:41:22;11.43;;;4.45;;
69894;SDS011;57172;52.034;5.090;2023-11-18T10:43:52;10.93;;;4.35;;
69894;SDS011;57172;52.034;5.090;2023-11-18T10:46:42;10.30;;;3.47;;
69894;SDS011;57172;52.034;5.090;2023-11-18T10:49:22;8.68;;;3.50;;
69894;SDS011;57172;52.034;5.090;2023-11-18T10:51:50;10.13;;;4.00;;
69894;SDS011;57172;52.034;5.090;2023-11-18T10:54:18;9.40;;;4.03;;
69894;SDS011;57172;52.034;5.090;2023-11-18T10:56:46;11.57;;;4.43;;
69894;SDS011;57172;52.034;5.090;2023-11-18T10:59:14;14.00;;;4.43;;
69894;SDS011;57172;52.034;5.090;2023-11-18T11:01:45;12.43;;;4.30;;
69894;SDS011;57172;52.034;5.090;2023-11-18T11:04:15;13.23;;;4.73;;
69894;SDS011;57172;52.034;5.090;2023-11-18T11:06:48;9.77;;;4.10;;
69894;SDS011;57172;52.034;5.090;2023-11-18T11:09:21;11.05;;;4.25;;
69894;SDS011;57172;52.034;5.090;2023-11-18T11:11:57;12.27;;;4.75;;
69894;SDS011;57172;52.034;5.090;2023-11-18T11:14:33;15.10;;;4.78;;
69894;SDS011;57172;52.034;5.090;2023-11-18T11:17:08;13.80;;;4.30;;
69894;SDS011;57172;52.034;5.090;2023-11-18T11:19:47;14.98;;;4.90;;
69894;SDS011;57172;52.034;5.090;2023-11-18T11:22:24;9.27;;;3.88;;
69894;SDS011;57172;52.034;5.090;2023-11-18T11:25:03;11.65;;;4.28;;
69894;SDS011;57172;52.034;5.090;2023-11-18T11:28:02;15.40;;;4.30;;
69894;SDS011;57172;52.034;5.090;2023-11-18T11:30:46;10.93;;;4.10;;
69894;SDS011;57172;52.034;5.090;2023-11-18T11:35:59;9.10;;;3.70;;
69894;SDS011;57172;52.034;5.090;2023-11-18T11:38:28;11.57;;;4.22;;
69894;SDS011;57172;52.034;5.090;2023-11-18T11:40:56;10.63;;;3.30;;
69894;SDS011;57172;52.034;5.090;2023-11-18T11:43:28;12.53;;;3.80;;
69894;SDS011;57172;52.034;5.090;2023-11-18T11:45:56;13.18;;;4.43;;
69894;SDS011;57172;52.034;5.090;2023-11-18T11:48:23;7.82;;;2.92;;
69894;SDS011;57172;52.034;5.090;2023-11-18T11:53:35;11.30;;;3.70;;
69894;SDS011;57172;52.034;5.090;2023-11-18T11:56:12;7.60;;;3.33;;
69894;SDS011;57172;52.034;5.090;2023-11-18T11:58:47;5.80;;;2.55;;
69894;SDS011;57172;52.034;5.090;2023-11-18T12:01:24;6.30;;;3.30;;
69894;SDS011;57172;52.034;5.090;2023-11-18T12:03:59;10.18;;;3.20;;
69894;SDS011;57172;52.034;5.090;2023-11-18T12:06:33;12.73;;;3.70;;
69894;SDS011;57172;52.034;5.090;2023-11-18T12:09:03;8.37;;;3.57;;
69894;SDS011;57172;52.034;5.090;2023-11-18T12:11:33;8.32;;;3.50;;
69894;SDS011;57172;52.034;5.090;2023-11-18T12:14:12;6.57;;;3.28;;
69894;SDS011;57172;52.034;5.090;2023-11-18T12:16:59;9.73;;;3.78;;
69894;SDS011;57172;52.034;5.090;2023-11-18T12:19:50;8.30;;;3.53;;
69894;SDS011;57172;52.034;5.090;2023-11-18T12:22:22;7.20;;;2.63;;
69894;SDS011;57172;52.034;5.090;2023-11-18T12:35:25;10.13;;;2.80;;
69894;SDS011;57172;52.034;5.090;2023-11-18T12:40:52;7.80;;;3.20;;
69894;SDS011;57172;52.034;5.090;2023-11-18T12:43:45;10.85;;;3.50;;
69894;SDS011;57172;52.034;5.090;2023-11-18T12:46:42;8.48;;;2.95;;
69894;SDS011;57172;52.034;5.090;2023-11-18T12:49:22;6.40;;;2.37;;
69894;SDS011;57172;52.034;5.090;2023-11-18T12:51:51;8.27;;;2.67;;
69894;SDS011;57172;52.034;5.090;2023-11-18T12:54:19;9.40;;;2.55;;
69894;SDS011;57172;52.034;5.090;2023-11-18T12:56:50;9.05;;;3.00;;
69894;SDS011;57172;52.034;5.090;2023-11-18T12:59:20;11.63;;;2.80;;
69894;SDS011;57172;52.034;5.090;2023-11-18T13:01:47;7.77;;;2.40;;
69894;SDS011;57172;52.034;5.090;2023-11-18T13:04:20;7.30;;;3.00;;
69894;SDS011;57172;52.034;5.090;2023-11-18T13:06:47;4.05;;;1.67;;
69894;SDS011;57172;52.034;5.090;2023-11-18T13:09:17;7.75;;;2.38;;
69894;SDS011;57172;52.034;5.090;2023-11-18T13:11:54;6.22;;;2.30;;
69894;SDS011;57172;52.034;5.090;2023-11-18T13:14:25;3.63;;;1.63;;
69894;SDS011;57172;52.034;5.090;2023-11-18T13:16:53;4.20;;;1.75;;
69894;SDS011;57172;52.034;5.090;2023-11-18T13:19:26;3.50;;;1.92;;
69894;SDS011;57172;52.034;5.090;2023-11-18T13:21:57;3.08;;;1.60;;
69894;SDS011;57172;52.034;5.090;2023-11-18T13:24:26;4.28;;;2.10;;
69894;SDS011;57172;52.034;5.090;2023-11-18T13:26:56;5.33;;;1.90;;
69894;SDS011;57172;52.034;5.090;2023-11-18T13:29:24;3.50;;;1.67;;
69894;SDS011;57172;52.034;5.090;2023-11-18T13:31:51;7.60;;;2.30;;
69894;SDS011;57172;52.034;5.090;2023-11-18T13:34:18;7.43;;;2.47;;
69894;SDS011;57172;52.034;5.090;2023-11-18T13:36:46;3.78;;;1.73;;
69894;SDS011;57172;52.034;5.090;2023-11-18T13:39:15;5.73;;;1.70;;
69894;SDS011;57172;52.034;5.090;2023-11-18T13:41:48;6.30;;;2.20;;
69894;SDS011;57172;52.034;5.090;2023-11-18T13:47:05;5.07;;;1.95;;
69894;SDS011;57172;52.034;5.090;2023-11-18T13:49:33;4.35;;;2.22;;
69894;SDS011;57172;52.034;5.090;2023-11-18T13:52:02;4.77;;;2.03;;
69894;SDS011;57172;52.034;5.090;2023-11-18T13:54:30;3.95;;;1.80;;
69894;SDS011;57172;52.034;5.090;2023-11-18T13:56:58;3.10;;;1.92;;
69894;SDS011;57172;52.034;5.090;2023-11-18T13:59:26;3.47;;;2.17;;
69894;SDS011;57172;52.034;5.090;2023-11-18T14:01:53;6.32;;;2.33;;
69894;SDS011;57172;52.034;5.090;2023-11-18T14:04:24;4.57;;;2.10;;
69894;SDS011;57172;52.034;5.090;2023-11-18T14:06:57;5.28;;;1.90;;
69894;SDS011;57172;52.034;5.090;2023-11-18T14:09:36;5.28;;;2.30;;
69894;SDS011;57172;52.034;5.090;2023-11-18T14:12:06;5.00;;;2.10;;
69894;SDS011;57172;52.034;5.090;2023-11-18T14:14:34;5.00;;;2.10;;
69894;SDS011;57172;52.034;5.090;2023-11-18T14:17:02;2.07;;;1.20;;
69894;SDS011;57172;52.034;5.090;2023-11-18T14:19:29;5.60;;;2.05;;
69894;SDS011;57172;52.034;5.090;2023-11-18T14:21:56;5.18;;;2.30;;
69894;SDS011;57172;52.034;5.090;2023-11-18T14:24:23;3.83;;;1.95;;
69894;SDS011;57172;52.034;5.090;2023-11-18T14:26:54;4.28;;;2.30;;
69894;SDS011;57172;52.034;5.090;2023-11-18T14:29:22;4.10;;;2.00;;
69894;SDS011;57172;52.034;5.090;2023-11-18T14:31:51;2.65;;;1.60;;
69894;SDS011;57172;52.034;5.090;2023-11-18T14:34:18;4.88;;;2.10;;
69894;SDS011;57172;52.034;5.090;2023-11-18T14:36:45;4.40;;;2.20;;
69894;SDS011;57172;52.034;5.090;2023-11-18T14:39:12;5.07;;;2.47;;
69894;SDS011;57172;52.034;5.090;2023-11-18T14:41:47;5.17;;;2.30;;
69894;SDS011;57172;52.034;5.090;2023-11-18T14:44:15;3.60;;;1.95;;
69894;SDS011;57172;52.034;5.090;2023-11-18T14:46:41;3.70;;;2.20;;
69894;SDS011;57172;52.034;5.090;2023-11-18T14:49:08;4.15;;;2.10;;
69894;SDS011;57172;52.034;5.090;2023-11-18T14:51:36;4.43;;;1.80;;
69894;SDS011;57172;52.034;5.090;2023-11-18T14:54:04;8.03;;;1.97;;
69894;SDS011;57172;52.034;5.090;2023-11-18T14:56:32;3.58;;;1.85;;
69894;SDS011;57172;52.034;5.090;2023-11-18T14:59:01;2.72;;;1.65;;
69894;SDS011;57172;52.034;5.090;2023-11-18T15:01:31;3.80;;;1.73;;
69894;SDS011;57172;52.034;5.090;2023-11-18T15:03:58;2.65;;;1.65;;
69894;SDS011;57172;52.034;5.090;2023-11-18T15:06:26;2.83;;;1.70;;
69894;SDS011;57172;52.034;5.090;2023-11-18T15:08:53;5.50;;;2.70;;
69894;SDS011;57172;52.034;5.090;2023-11-18T15:11:24;3.88;;;2.30;;
69894;SDS011;57172;52.034;5.090;2023-11-18T15:13:51;3.50;;;2.00;;
69894;SDS011;57172;52.034;5.090;2023-11-18T15:16:20;2.70;;;1.73;;
69894;SDS011;57172;52.034;5.090;2023-11-18T15:18:48;3.53;;;1.90;;